createdAt,value
2022-10-05T00:00:50.187Z,92.11
2022-10-05T00:03:22.797Z,91.96
2022-10-05T00:05:52.944Z,91.90
2022-10-05T00:08:25.583Z,91.41
2022-10-05T00:10:55.556Z,91.77
2022-10-05T00:13:27.743Z,91.39
2022-10-05T00:16:02.264Z,92.14
2022-10-05T00:18:35.878Z,91.97
2022-10-05T00:21:11.812Z,91.76
2022-10-05T00:23:43.460Z,92.54
2022-10-05T00:26:17.226Z,92.65
2022-10-05T00:28:47.000Z,92.97
2022-10-05T00:31:20.343Z,93.92
2022-10-05T00:33:54.991Z,93.55
2022-10-05T00:36:26.151Z,93.21
2022-10-05T00:38:56.869Z,94.36
2022-10-05T00:41:33.647Z,95.10
2022-10-05T00:44:35.670Z,94.08
2022-10-05T00:47:20.799Z,94.67
2022-10-05T00:50:12.200Z,94.24
2022-10-05T00:52:50.965Z,94.24
2022-10-05T00:55:30.728Z,93.21
2022-10-05T00:58:13.675Z,92.92
2022-10-05T01:00:55.825Z,92.51
2022-10-05T01:03:35.896Z,92.55
2022-10-05T01:06:19.257Z,91.85
2022-10-05T01:08:57.428Z,91.73
2022-10-05T01:11:32.794Z,92.22
2022-10-05T01:14:15.050Z,91.90
2022-10-05T01:16:53.419Z,91.67
2022-10-05T01:19:56.142Z,91.77
2022-10-05T01:22:43.854Z,93.00
2022-10-05T01:25:25.831Z,93.46
2022-10-05T01:28:06.064Z,93.29
2022-10-05T01:30:43.507Z,93.77
2022-10-05T01:33:25.053Z,93.17
2022-10-05T01:36:03.011Z,93.51
2022-10-05T01:38:45.292Z,93.33
2022-10-05T01:41:25.735Z,92.80
2022-10-05T01:44:03.152Z,93.34
2022-10-05T01:46:39.178Z,93.43
2022-10-05T01:49:25.334Z,92.88
2022-10-05T01:52:07.114Z,93.08
2022-10-05T01:54:47.121Z,92.57
2022-10-05T01:57:29.285Z,92.55
2022-10-05T02:00:08.607Z,92.40
2022-10-05T02:02:49.075Z,92.96
2022-10-05T02:05:23.908Z,93.33
2022-10-05T02:08:00.351Z,93.86
2022-10-05T02:10:33.722Z,93.67
2022-10-05T02:13:09.641Z,93.25
2022-10-05T02:15:47.504Z,93.22
2022-10-05T02:18:22.651Z,93.66
2022-10-05T02:20:55.249Z,93.73
2022-10-05T02:23:29.796Z,94.02
2022-10-05T02:26:01.076Z,93.52
2022-10-05T02:28:36.208Z,93.00
2022-10-05T02:31:13.713Z,92.93
2022-10-05T02:33:43.694Z,93.03
2022-10-05T02:36:20.527Z,93.34
2022-10-05T02:39:03.798Z,93.42
2022-10-05T02:41:45.609Z,93.76
2022-10-05T02:44:25.712Z,94.52
2022-10-05T02:47:07.307Z,94.67
2022-10-05T02:49:46.821Z,94.75
2022-10-05T02:52:25.423Z,94.57
2022-10-05T02:55:05.593Z,94.33
2022-10-05T02:57:41.327Z,94.53
2022-10-05T03:00:15.855Z,94.56
2022-10-05T03:02:56.696Z,94.36
2022-10-05T03:05:30.868Z,95.05
2022-10-05T03:08:04.566Z,95.42
2022-10-05T03:10:41.004Z,95.24
2022-10-05T03:13:19.095Z,95.54
2022-10-05T03:16:01.748Z,95.25
2022-10-05T03:18:47.711Z,95.54
2022-10-05T03:21:32.326Z,94.99
2022-10-05T03:24:19.787Z,95.45
2022-10-05T03:27:00.118Z,95.73
2022-10-05T03:29:36.504Z,95.93
2022-10-05T03:32:17.554Z,95.53
2022-10-05T03:34:56.664Z,95.79
2022-10-05T03:37:32.018Z,95.70
2022-10-05T03:40:09.964Z,96.90
2022-10-05T03:42:55.275Z,96.54
2022-10-05T03:45:33.663Z,96.15
2022-10-05T03:48:08.442Z,95.84
2022-10-05T03:50:48.879Z,95.92
2022-10-05T03:53:22.551Z,96.53
2022-10-05T03:55:57.065Z,96.41
2022-10-05T03:58:30.241Z,96.54
2022-10-05T04:01:06.483Z,95.76
2022-10-05T04:03:41.124Z,95.23
2022-10-05T04:06:17.328Z,94.27
2022-10-05T04:08:53.318Z,93.58
2022-10-05T04:11:30.436Z,92.88
2022-10-05T04:14:05.903Z,92.76
2022-10-05T04:16:42.491Z,92.69
2022-10-05T04:19:21.009Z,92.41
2022-10-05T04:21:58.888Z,93.73
2022-10-05T04:24:37.044Z,94.79
2022-10-05T04:27:14.856Z,95.26
2022-10-05T04:29:50.281Z,96.09
2022-10-05T04:32:31.919Z,96.83
2022-10-05T04:35:27.431Z,97.17
2022-10-05T04:38:08.343Z,97.36
2022-10-05T04:40:51.600Z,96.94
2022-10-05T04:43:30.971Z,96.90
2022-10-05T04:46:17.659Z,97.12
2022-10-05T04:49:16.675Z,97.88
2022-10-05T04:51:56.276Z,98.61
2022-10-05T04:54:35.385Z,98.85
2022-10-05T04:57:08.315Z,99.22
2022-10-05T05:00:02.167Z,97.94
2022-10-05T05:02:50.254Z,98.15
2022-10-05T05:06:12.030Z,97.29
2022-10-05T05:08:58.030Z,97.95
2022-10-05T05:11:40.495Z,98.28
2022-10-05T05:14:29.438Z,98.09
2022-10-05T05:17:13.282Z,98.72
2022-10-05T05:19:53.499Z,99.39
2022-10-05T05:22:31.995Z,98.87
2022-10-05T05:25:20.440Z,98.29
2022-10-05T05:27:57.730Z,98.26
2022-10-05T05:30:41.641Z,97.84
2022-10-05T05:33:23.198Z,98.75
2022-10-05T05:36:23.463Z,98.28
2022-10-05T05:39:09.210Z,99.05
2022-10-05T05:41:41.509Z,100.00
2022-10-05T05:44:26.705Z,100.00
2022-10-05T05:47:05.071Z,100.00
2022-10-05T05:49:52.500Z,100.00
2022-10-05T05:52:28.353Z,99.74
2022-10-05T05:55:04.444Z,99.64
2022-10-05T05:57:41.611Z,98.91
2022-10-05T06:00:22.916Z,99.16
2022-10-05T06:03:07.235Z,100.00
2022-10-05T06:05:43.502Z,99.85
2022-10-05T06:08:20.540Z,100.00
2022-10-05T06:10:57.987Z,100.00
2022-10-05T06:13:31.795Z,100.00
2022-10-05T06:16:11.256Z,99.50
2022-10-05T06:18:48.016Z,100.00
2022-10-05T06:21:26.211Z,99.21
2022-10-05T06:24:01.715Z,99.59
2022-10-05T06:27:15.251Z,98.03
2022-10-05T06:30:01.576Z,97.55
2022-10-05T06:32:37.880Z,97.72
2022-10-05T06:35:19.108Z,97.12
2022-10-05T06:38:06.976Z,97.30
2022-10-05T06:40:50.019Z,97.51
2022-10-05T06:43:36.789Z,97.96
2022-10-05T06:46:24.075Z,98.16
2022-10-05T06:49:22.184Z,97.41
2022-10-05T06:52:24.142Z,97.92
2022-10-05T06:55:14.013Z,97.46
2022-10-05T06:57:56.451Z,97.16
2022-10-05T07:00:33.519Z,97.14
2022-10-05T07:03:13.160Z,97.50
2022-10-05T07:05:59.495Z,97.35
2022-10-05T07:08:44.132Z,96.85
2022-10-05T07:11:27.646Z,96.96
2022-10-05T07:14:12.441Z,96.15
2022-10-05T07:16:59.374Z,96.92
2022-10-05T07:19:40.399Z,96.57
2022-10-05T07:22:38.069Z,96.43
2022-10-05T07:25:13.869Z,96.67
2022-10-05T07:27:51.861Z,96.65
2022-10-05T07:30:22.192Z,96.59
2022-10-05T07:33:01.450Z,96.66
2022-10-05T07:36:06.781Z,95.48
2022-10-05T07:38:44.636Z,96.49
2022-10-05T07:41:20.170Z,95.70
2022-10-05T07:44:02.408Z,95.01
2022-10-05T07:46:49.901Z,95.42
2022-10-05T07:49:28.065Z,95.34
2022-10-05T07:52:02.376Z,95.07
2022-10-05T07:54:50.342Z,93.96
2022-10-05T07:57:27.260Z,93.38
2022-10-05T08:00:05.003Z,92.99
2022-10-05T08:02:49.817Z,92.12
2022-10-05T08:05:26.733Z,92.28
2022-10-05T08:08:07.521Z,91.43
2022-10-05T08:10:51.929Z,91.13
2022-10-05T08:13:27.277Z,90.10
2022-10-05T08:16:03.299Z,89.06
2022-10-05T08:18:50.088Z,87.55
2022-10-05T08:21:26.419Z,88.63
2022-10-05T08:23:59.068Z,88.49
2022-10-05T08:26:43.726Z,87.82
2022-10-05T08:29:22.767Z,88.03
2022-10-05T08:31:59.285Z,86.48
2022-10-05T08:34:37.474Z,86.32
2022-10-05T08:37:11.692Z,86.84
2022-10-05T08:39:43.972Z,85.88
2022-10-05T08:42:54.246Z,85.80
2022-10-05T08:45:57.860Z,86.81
2022-10-05T08:48:45.460Z,86.45
2022-10-05T08:51:32.172Z,85.83
2022-10-05T08:54:33.827Z,86.05
2022-10-05T08:57:28.962Z,87.92
2022-10-05T09:00:13.719Z,86.73
2022-10-05T09:03:17.623Z,86.14
2022-10-05T09:06:19.608Z,86.91
2022-10-05T09:09:06.817Z,87.17
2022-10-05T09:11:39.072Z,86.74
2022-10-05T09:15:01.340Z,85.13
2022-10-05T09:18:10.167Z,85.11
2022-10-05T09:20:49.539Z,84.75
2022-10-05T09:23:36.829Z,85.17
2022-10-05T09:26:12.169Z,85.43
2022-10-05T09:29:02.192Z,84.75
2022-10-05T09:31:53.368Z,84.80
2022-10-05T09:34:49.430Z,85.46
2022-10-05T09:37:44.238Z,85.00
2022-10-05T09:40:47.475Z,84.31
2022-10-05T09:43:55.607Z,84.24
2022-10-05T09:46:48.509Z,83.74
2022-10-05T09:49:57.804Z,83.98
2022-10-05T09:53:07.640Z,83.40
2022-10-05T09:56:15.764Z,83.38
2022-10-05T09:59:15.374Z,83.45
2022-10-05T10:02:07.463Z,83.63
2022-10-05T10:05:06.921Z,83.94
2022-10-05T10:08:05.168Z,83.92
2022-10-05T10:11:03.542Z,83.74
2022-10-05T10:14:27.040Z,83.50
2022-10-05T10:17:15.421Z,83.39
2022-10-05T10:20:05.894Z,84.61
2022-10-05T10:23:06.577Z,85.21
2022-10-05T10:26:04.794Z,84.99
2022-10-05T10:29:16.554Z,83.96
2022-10-05T10:32:06.094Z,84.27
2022-10-05T10:35:10.175Z,83.05
2022-10-05T10:37:59.071Z,83.48
2022-10-05T10:40:41.546Z,83.21
2022-10-05T10:43:34.611Z,82.48
2022-10-05T10:46:14.759Z,83.32
2022-10-05T10:48:57.458Z,82.56
2022-10-05T10:51:50.365Z,82.48
2022-10-05T10:54:45.407Z,81.96
2022-10-05T10:57:17.719Z,82.38
2022-10-05T11:00:22.757Z,81.63
2022-10-05T11:03:26.643Z,80.30
2022-10-05T11:06:18.916Z,80.94
2022-10-05T11:09:14.807Z,78.90
2022-10-05T11:12:14.677Z,78.78
2022-10-05T11:15:16.047Z,79.47
2022-10-05T11:18:09.430Z,79.06
2022-10-05T11:21:06.462Z,78.54
2022-10-05T11:23:58.906Z,76.21
2022-10-05T11:26:49.042Z,76.80
2022-10-05T11:29:52.830Z,75.86
2022-10-05T11:33:01.282Z,74.69
2022-10-05T11:36:13.026Z,75.63
2022-10-05T11:39:15.702Z,74.82
2022-10-05T11:42:17.240Z,75.26
2022-10-05T11:45:16.815Z,76.49
2022-10-05T11:48:06.555Z,75.73
2022-10-05T11:50:42.436Z,75.70
2022-10-05T11:53:24.784Z,75.59
2022-10-05T11:56:04.793Z,76.83
2022-10-05T11:58:40.368Z,76.03
2022-10-05T12:01:23.662Z,76.09
2022-10-05T12:04:02.440Z,75.72
2022-10-05T12:06:51.969Z,75.63
2022-10-05T12:10:08.868Z,74.96
2022-10-05T12:12:45.143Z,74.17
2022-10-05T12:15:24.021Z,75.67
2022-10-05T12:18:04.726Z,74.82
2022-10-05T12:20:40.409Z,75.71
2022-10-05T12:23:17.739Z,75.11
2022-10-05T12:25:59.426Z,76.00
2022-10-05T12:28:37.388Z,76.16
2022-10-05T12:31:22.256Z,76.19
2022-10-05T12:34:02.597Z,76.47
2022-10-05T12:37:02.552Z,76.54
2022-10-05T12:39:39.520Z,76.40
2022-10-05T12:42:24.108Z,76.81
2022-10-05T12:45:07.099Z,76.09
2022-10-05T12:47:51.507Z,76.74
2022-10-05T12:50:28.340Z,76.90
2022-10-05T12:53:17.809Z,77.19
2022-10-05T12:55:56.072Z,76.22
2022-10-05T12:58:35.693Z,76.88
2022-10-05T13:01:16.030Z,77.10
2022-10-05T13:03:54.798Z,76.32
2022-10-05T13:06:36.344Z,76.95
2022-10-05T13:09:13.235Z,77.40
2022-10-05T13:11:48.667Z,75.98
2022-10-05T13:14:45.415Z,76.43
2022-10-05T13:17:21.043Z,76.90
2022-10-05T13:19:57.970Z,77.50
2022-10-05T13:22:37.089Z,77.87
2022-10-05T13:25:20.042Z,77.15
2022-10-05T13:27:56.989Z,76.85
2022-10-05T13:30:30.906Z,76.88
2022-10-05T13:33:09.303Z,76.06
2022-10-05T13:35:47.945Z,75.98
2022-10-05T13:38:34.193Z,77.37
2022-10-05T13:41:11.609Z,76.01
2022-10-05T13:43:49.425Z,76.50
2022-10-05T13:46:32.260Z,76.43
2022-10-05T13:49:15.967Z,76.48
2022-10-05T13:51:54.636Z,76.10
2022-10-05T13:54:32.849Z,76.08
2022-10-05T13:57:13.726Z,75.51
2022-10-05T13:59:53.345Z,76.08
2022-10-05T14:02:32.297Z,76.12
2022-10-05T14:05:04.724Z,75.28
2022-10-05T14:07:36.790Z,74.88
2022-10-05T14:10:14.186Z,75.78
2022-10-05T14:12:47.032Z,74.98
2022-10-05T14:15:24.091Z,74.08
2022-10-05T14:17:56.492Z,74.08
2022-10-05T14:20:28.303Z,74.03
2022-10-05T14:23:02.052Z,73.61
2022-10-05T14:25:34.152Z,73.87
2022-10-05T14:28:12.842Z,73.96
2022-10-05T14:30:59.484Z,73.51
2022-10-05T14:33:36.426Z,72.96
2022-10-05T14:36:06.712Z,71.94
2022-10-05T14:38:53.368Z,72.14
2022-10-05T14:41:24.955Z,73.40
2022-10-05T14:44:04.787Z,71.48
2022-10-05T14:46:35.358Z,72.27
2022-10-05T14:49:24.529Z,72.74
2022-10-05T14:51:56.055Z,73.42
2022-10-05T14:54:31.833Z,72.84
2022-10-05T14:57:10.360Z,72.64
2022-10-05T15:00:06.025Z,73.54
2022-10-05T15:02:52.475Z,73.02
2022-10-05T15:05:31.474Z,72.84
2022-10-05T15:08:17.429Z,72.69
2022-10-05T15:10:54.347Z,71.78
2022-10-05T15:13:27.005Z,71.96
2022-10-05T15:15:59.635Z,72.08
2022-10-05T15:18:38.981Z,72.68
2022-10-05T15:21:26.472Z,72.28
2022-10-05T15:23:58.978Z,73.00
2022-10-05T15:26:45.872Z,72.92
2022-10-05T15:29:35.223Z,72.96
2022-10-05T15:32:16.191Z,72.91
2022-10-05T15:34:58.067Z,72.69
2022-10-05T15:37:37.364Z,72.81
2022-10-05T15:40:11.158Z,72.62
2022-10-05T15:42:45.263Z,72.77
2022-10-05T15:45:23.549Z,72.78
2022-10-05T15:48:01.284Z,68.86
2022-10-05T15:50:35.135Z,71.69
2022-10-05T15:53:16.973Z,67.88
2022-10-05T15:55:54.702Z,70.57
2022-10-05T15:58:50.035Z,72.44
2022-10-05T16:01:24.421Z,72.07
2022-10-05T16:04:03.795Z,72.70
2022-10-05T16:06:56.477Z,73.23
2022-10-05T16:09:50.075Z,73.00
2022-10-05T16:12:32.726Z,74.71
2022-10-05T16:15:19.029Z,74.81
2022-10-05T16:18:20.864Z,74.53
2022-10-05T16:20:55.909Z,74.89
2022-10-05T16:23:37.526Z,74.69
2022-10-05T16:26:22.725Z,74.51
2022-10-05T16:29:02.318Z,74.53
2022-10-05T16:31:39.962Z,75.21
2022-10-05T16:34:24.697Z,75.11
2022-10-05T16:37:02.395Z,75.73
2022-10-05T16:39:55.493Z,76.15
2022-10-05T16:42:37.818Z,76.57
2022-10-05T16:45:22.895Z,77.09
2022-10-05T16:48:00.880Z,77.33
2022-10-05T16:50:37.178Z,77.76
2022-10-05T16:53:15.230Z,77.94
2022-10-05T16:55:50.920Z,78.25
2022-10-05T16:58:35.302Z,78.50
2022-10-05T17:01:22.598Z,78.85
2022-10-05T17:04:12.207Z,78.88
2022-10-05T17:07:23.519Z,78.23
2022-10-05T17:10:16.911Z,78.88
2022-10-05T17:13:04.094Z,78.66
2022-10-05T17:15:50.389Z,78.86
2022-10-05T17:18:31.545Z,79.71
2022-10-05T17:21:08.014Z,79.38
2022-10-05T17:23:56.673Z,79.38
2022-10-05T17:26:56.012Z,79.41
2022-10-05T17:29:32.078Z,80.39
2022-10-05T17:32:34.336Z,80.47
2022-10-05T17:35:20.364Z,80.23
2022-10-05T17:38:14.545Z,79.82
2022-10-05T17:41:06.441Z,79.88
2022-10-05T17:43:36.799Z,80.67
2022-10-05T17:46:10.332Z,79.71
2022-10-05T17:49:14.241Z,79.46
2022-10-05T17:52:35.067Z,79.26
2022-10-05T17:55:41.658Z,79.34
2022-10-05T17:59:06.674Z,78.52
2022-10-05T18:01:39.831Z,79.41
2022-10-05T18:04:40.965Z,78.23
2022-10-05T18:07:24.705Z,78.53
2022-10-05T18:10:01.808Z,79.00
2022-10-05T18:12:48.345Z,77.51
2022-10-05T18:15:48.523Z,77.96
2022-10-05T18:18:54.741Z,77.36
2022-10-05T18:21:40.422Z,77.29
2022-10-05T18:24:56.189Z,77.04
2022-10-05T18:28:09.809Z,77.29
2022-10-05T18:31:02.483Z,76.80
2022-10-05T18:34:07.693Z,77.01
2022-10-05T18:36:57.609Z,77.27
2022-10-05T18:39:53.848Z,77.27
2022-10-05T18:42:35.627Z,77.68
2022-10-05T18:45:18.685Z,77.41
2022-10-05T18:47:58.030Z,77.97
2022-10-05T18:50:36.103Z,78.64
2022-10-05T18:53:20.514Z,78.64
2022-10-05T18:55:58.907Z,78.83
2022-10-05T18:58:39.475Z,78.87
2022-10-05T19:01:43.987Z,78.41
2022-10-05T19:04:24.285Z,79.39
2022-10-05T19:07:04.859Z,79.06
2022-10-05T19:09:51.335Z,79.43
2022-10-05T19:12:32.277Z,80.04
2022-10-05T19:15:09.787Z,80.13
2022-10-05T19:17:59.355Z,80.21
2022-10-05T19:20:37.420Z,80.72
2022-10-05T19:23:24.070Z,80.99
2022-10-05T19:26:05.885Z,81.04
2022-10-05T19:28:41.552Z,81.30
2022-10-05T19:31:27.474Z,80.35
2022-10-05T19:34:09.047Z,81.16
2022-10-05T19:36:58.303Z,80.55
2022-10-05T19:39:38.465Z,79.90
2022-10-05T19:42:27.867Z,79.32
2022-10-05T19:45:10.707Z,79.19
2022-10-05T19:47:54.763Z,80.37
2022-10-05T19:50:30.917Z,79.69
2022-10-05T19:53:09.348Z,79.76
2022-10-05T19:55:47.172Z,79.24
2022-10-05T19:58:25.602Z,79.37
2022-10-05T20:01:01.291Z,78.00
2022-10-05T20:03:32.629Z,78.55
2022-10-05T20:06:04.372Z,78.29
2022-10-05T20:08:41.887Z,78.20
2022-10-05T20:11:14.964Z,79.05
2022-10-05T20:13:49.165Z,78.35
2022-10-05T20:19:51.777Z,78.39
2022-10-05T20:22:27.890Z,78.40
2022-10-05T20:25:01.208Z,78.28
2022-10-05T20:27:47.851Z,77.98
2022-10-05T20:30:22.573Z,77.20
2022-10-05T20:32:53.348Z,77.80
2022-10-05T20:35:26.265Z,78.74
2022-10-05T20:38:00.283Z,79.68
2022-10-05T20:40:32.749Z,79.44
2022-10-05T20:43:02.485Z,79.81
2022-10-05T20:45:34.794Z,79.13
2022-10-05T20:48:04.846Z,79.27
2022-10-05T20:50:35.631Z,79.79
2022-10-05T20:53:09.605Z,79.60
2022-10-05T20:55:41.427Z,80.17
2022-10-05T20:58:12.168Z,80.65
2022-10-05T21:00:58.118Z,80.77
2022-10-05T21:03:27.875Z,81.57
2022-10-05T21:05:57.680Z,81.28
2022-10-05T21:08:28.902Z,81.04
2022-10-05T21:10:58.874Z,81.84
2022-10-05T21:13:28.540Z,82.06
2022-10-05T21:16:00.886Z,81.93
2022-10-05T21:18:31.229Z,82.03
2022-10-05T21:21:02.338Z,81.88
2022-10-05T21:23:32.623Z,81.38
2022-10-05T21:26:02.375Z,81.43
2022-10-05T21:28:33.208Z,81.89
2022-10-05T21:31:05.947Z,81.39
2022-10-05T21:33:35.760Z,80.92
2022-10-05T21:36:06.169Z,80.90
2022-10-05T21:38:35.882Z,81.07
2022-10-05T21:41:05.657Z,81.40
2022-10-05T21:43:35.362Z,81.39
2022-10-05T21:46:08.915Z,81.51
2022-10-05T21:48:40.988Z,81.82
2022-10-05T21:51:13.520Z,81.74
2022-10-05T21:53:48.534Z,82.04
2022-10-05T21:56:20.662Z,82.19
2022-10-05T21:58:51.491Z,82.22
2022-10-05T22:01:23.881Z,81.96
2022-10-05T22:03:53.641Z,81.75
2022-10-05T22:06:23.423Z,81.06
2022-10-05T22:08:53.195Z,81.00
2022-10-05T22:11:22.988Z,80.95
2022-10-05T22:13:54.876Z,81.56
2022-10-05T22:16:27.353Z,81.04
2022-10-05T22:18:57.319Z,81.77
2022-10-05T22:21:27.164Z,82.04
2022-10-05T22:23:56.908Z,81.77
2022-10-05T22:26:27.359Z,81.43
2022-10-05T22:28:57.796Z,81.56
2022-10-05T22:31:30.335Z,82.47
2022-10-05T22:34:00.118Z,82.70
2022-10-05T22:36:29.916Z,82.52
2022-10-05T22:38:59.639Z,82.18
2022-10-05T22:41:29.346Z,81.71
2022-10-05T22:43:59.097Z,81.62
2022-10-05T22:46:31.651Z,80.65
2022-10-05T22:49:01.388Z,80.92
2022-10-05T22:51:31.146Z,81.11
2022-10-05T22:54:00.883Z,81.29
2022-10-05T22:56:31.105Z,81.36
2022-10-05T22:59:00.812Z,80.93
2022-10-05T23:01:33.144Z,80.95
2022-10-05T23:04:02.959Z,81.69
2022-10-05T23:06:33.856Z,82.18
2022-10-05T23:09:03.592Z,83.03
2022-10-05T23:11:33.405Z,83.84
2022-10-05T23:14:03.158Z,83.42
2022-10-05T23:16:35.782Z,83.00
2022-10-05T23:19:05.577Z,83.07
2022-10-05T23:21:35.294Z,82.54
2022-10-05T23:24:05.022Z,82.87
2022-10-05T23:26:35.463Z,83.31
2022-10-05T23:29:05.186Z,82.98
2022-10-05T23:31:37.530Z,82.39
2022-10-05T23:34:07.281Z,82.79
2022-10-05T23:36:37.038Z,82.79
2022-10-05T23:39:06.895Z,82.74
2022-10-05T23:41:36.598Z,82.95
2022-10-05T23:44:06.335Z,80.72
2022-10-05T23:46:38.603Z,80.14
2022-10-05T23:49:08.850Z,80.32
2022-10-05T23:51:38.596Z,80.13
2022-10-05T23:54:08.475Z,80.13
2022-10-05T23:56:38.228Z,80.46
2022-10-05T23:59:07.921Z,82.35
